createdAt,value
2022-10-13T00:00:54.242Z,8.22
2022-10-13T00:01:54.197Z,8.02
2022-10-13T00:02:54.186Z,8.07
2022-10-13T00:03:54.231Z,8.04
2022-10-13T00:04:54.187Z,8.04
2022-10-13T00:05:54.212Z,8.10
2022-10-13T00:06:54.182Z,8.27
2022-10-13T00:07:54.191Z,8.27
2022-10-13T00:08:54.167Z,8.21
2022-10-13T00:09:54.149Z,8.32
2022-10-13T00:10:54.179Z,8.40
2022-10-13T00:11:54.168Z,8.52
2022-10-13T00:12:54.145Z,8.52
2022-10-13T00:13:54.193Z,8.49
2022-10-13T00:14:54.126Z,8.45
2022-10-13T00:15:54.144Z,8.22
2022-10-13T00:16:54.153Z,8.14
2022-10-13T00:17:54.133Z,8.12
2022-10-13T00:18:54.118Z,8.13
2022-10-13T00:19:54.129Z,8.20
2022-10-13T00:20:54.109Z,8.14
2022-10-13T00:21:54.124Z,8.24
2022-10-13T00:22:54.097Z,8.22
2022-10-13T00:23:54.084Z,8.22
2022-10-13T00:24:54.108Z,8.18
2022-10-13T00:25:54.083Z,8.24
2022-10-13T00:26:54.097Z,8.21
2022-10-13T00:27:54.114Z,8.21
2022-10-13T00:28:54.186Z,8.22
2022-10-13T00:29:54.076Z,8.21
2022-10-13T00:30:54.094Z,8.10
2022-10-13T00:31:54.055Z,7.91
2022-10-13T00:32:54.037Z,7.81
2022-10-13T00:33:54.107Z,7.77
2022-10-13T00:34:54.048Z,7.74
2022-10-13T00:35:54.063Z,7.67
2022-10-13T00:36:54.019Z,7.73
2022-10-13T00:37:54.023Z,7.71
2022-10-13T00:38:54.106Z,7.71
2022-10-13T00:39:54.008Z,7.79
2022-10-13T00:40:54.020Z,7.91
2022-10-13T00:41:53.998Z,7.84
2022-10-13T00:42:53.993Z,7.77
2022-10-13T00:43:54.039Z,7.69
2022-10-13T00:44:54.010Z,7.52
2022-10-13T00:45:54.003Z,7.37
2022-10-13T00:46:54.024Z,7.32
2022-10-13T00:47:54.000Z,7.36
2022-10-13T00:48:53.995Z,7.30
2022-10-13T00:49:53.990Z,7.30
2022-10-13T00:50:53.957Z,7.24
2022-10-13T00:51:53.998Z,7.16
2022-10-13T00:52:53.966Z,7.08
2022-10-13T00:53:53.955Z,7.24
2022-10-13T00:54:53.951Z,7.21
2022-10-13T00:55:54.020Z,7.24
2022-10-13T00:56:53.959Z,7.24
2022-10-13T00:57:53.926Z,7.42
2022-10-13T00:58:53.922Z,7.44
2022-10-13T00:59:53.924Z,7.50
2022-10-13T01:00:53.964Z,7.62
2022-10-13T01:01:53.924Z,7.69
2022-10-13T01:02:53.944Z,7.69
2022-10-13T01:03:53.942Z,7.71
2022-10-13T01:04:53.895Z,7.79
2022-10-13T01:05:53.879Z,7.76
2022-10-13T01:06:53.901Z,7.79
2022-10-13T01:07:53.902Z,7.73
2022-10-13T01:08:53.877Z,7.81
2022-10-13T01:09:53.869Z,7.76
2022-10-13T01:10:53.840Z,7.71
2022-10-13T01:11:53.869Z,7.70
2022-10-13T01:12:53.891Z,7.63
2022-10-13T01:13:53.848Z,7.76
2022-10-13T01:14:53.836Z,7.57
2022-10-13T01:15:53.854Z,7.54
2022-10-13T01:16:53.855Z,7.66
2022-10-13T01:17:53.818Z,7.47
2022-10-13T01:18:53.863Z,7.36
2022-10-13T01:19:53.847Z,7.27
2022-10-13T01:20:53.815Z,7.32
2022-10-13T01:21:53.820Z,7.29
2022-10-13T01:22:53.800Z,7.36
2022-10-13T01:23:53.840Z,7.34
2022-10-13T01:24:53.794Z,7.29
2022-10-13T01:25:54.835Z,7.41
2022-10-13T01:26:53.801Z,7.30
2022-10-13T01:27:53.798Z,7.32
2022-10-13T01:28:53.781Z,7.36
2022-10-13T01:29:53.805Z,7.32
2022-10-13T01:30:53.770Z,7.32
2022-10-13T01:31:53.756Z,7.29
2022-10-13T01:32:53.767Z,7.15
2022-10-13T01:33:53.752Z,7.07
2022-10-13T01:34:53.784Z,7.05
2022-10-13T01:35:53.750Z,7.09
2022-10-13T01:36:53.739Z,7.11
2022-10-13T01:37:53.737Z,7.16
2022-10-13T01:38:53.736Z,7.04
2022-10-13T01:39:53.745Z,7.15
2022-10-13T01:40:53.745Z,6.96
2022-10-13T01:41:53.737Z,6.91
2022-10-13T01:42:53.747Z,6.93
2022-10-13T01:43:53.753Z,6.97
2022-10-13T01:44:53.697Z,6.94
2022-10-13T01:45:53.715Z,6.97
2022-10-13T01:46:53.805Z,7.07
2022-10-13T01:47:53.701Z,7.08
2022-10-13T01:48:53.675Z,7.08
2022-10-13T01:49:53.678Z,7.16
2022-10-13T01:50:53.686Z,7.14
2022-10-13T01:51:53.693Z,7.01
2022-10-13T01:52:53.759Z,6.99
2022-10-13T01:53:53.664Z,6.86
2022-10-13T01:54:53.654Z,6.69
2022-10-13T01:55:53.661Z,6.89
2022-10-13T01:56:53.671Z,6.76
2022-10-13T01:57:53.664Z,6.72
2022-10-13T01:58:53.654Z,6.90
2022-10-13T01:59:53.638Z,6.81
2022-10-13T02:00:53.664Z,6.96
2022-10-13T02:01:53.630Z,6.86
2022-10-13T02:02:53.639Z,6.69
2022-10-13T02:03:53.684Z,6.69
2022-10-13T02:04:53.688Z,6.79
2022-10-13T02:05:53.613Z,6.79
2022-10-13T02:06:54.480Z,6.97
2022-10-13T02:07:53.619Z,6.99
2022-10-13T02:08:53.613Z,7.07
2022-10-13T02:09:53.637Z,7.15
2022-10-13T02:10:53.584Z,7.21
2022-10-13T02:11:53.615Z,7.18
2022-10-13T02:12:53.700Z,7.27
2022-10-13T02:13:53.595Z,7.32
2022-10-13T02:14:53.571Z,7.45
2022-10-13T02:15:53.568Z,7.30
2022-10-13T02:16:53.560Z,7.44
2022-10-13T02:17:53.583Z,7.37
2022-10-13T02:18:53.549Z,7.58
2022-10-13T02:19:53.572Z,7.52
2022-10-13T02:20:53.594Z,7.60
2022-10-13T02:21:53.580Z,7.54
2022-10-13T02:22:53.541Z,7.73
2022-10-13T02:23:53.510Z,7.77
2022-10-13T02:24:53.528Z,7.69
2022-10-13T02:25:53.536Z,7.55
2022-10-13T02:26:53.540Z,7.55
2022-10-13T02:27:53.520Z,7.42
2022-10-13T02:28:53.495Z,7.29
2022-10-13T02:29:53.513Z,7.30
2022-10-13T02:30:53.581Z,7.29
2022-10-13T02:31:53.485Z,7.27
2022-10-13T02:32:53.488Z,7.34
2022-10-13T02:33:53.489Z,7.23
2022-10-13T02:34:53.471Z,7.37
2022-10-13T02:35:53.461Z,7.48
2022-10-13T02:36:53.484Z,7.51
2022-10-13T02:37:53.506Z,7.44
2022-10-13T02:38:53.491Z,7.50
2022-10-13T02:39:53.471Z,7.55
2022-10-13T02:40:53.440Z,7.58
2022-10-13T02:41:53.661Z,7.60
2022-10-13T02:42:53.440Z,7.58
2022-10-13T02:43:53.426Z,7.52
2022-10-13T02:44:53.422Z,7.66
2022-10-13T02:45:53.481Z,7.62
2022-10-13T02:46:53.479Z,7.52
2022-10-13T02:47:53.421Z,7.24
2022-10-13T02:48:53.452Z,7.18
2022-10-13T02:49:53.420Z,7.24
2022-10-13T02:50:53.517Z,7.33
2022-10-13T02:51:53.406Z,7.33
2022-10-13T02:52:53.412Z,7.41
2022-10-13T02:53:53.381Z,7.39
2022-10-13T02:54:53.406Z,7.32
2022-10-13T02:55:53.397Z,7.45
2022-10-13T02:56:53.398Z,7.41
2022-10-13T02:57:53.400Z,7.44
2022-10-13T02:58:53.395Z,7.29
2022-10-13T02:59:53.392Z,7.19
2022-10-13T03:00:53.396Z,7.07
2022-10-13T03:01:53.411Z,7.00
2022-10-13T03:02:53.342Z,6.91
2022-10-13T03:03:53.365Z,6.96
2022-10-13T03:04:53.362Z,7.05
2022-10-13T03:05:53.350Z,7.07
2022-10-13T03:06:53.353Z,7.19
2022-10-13T03:07:53.325Z,7.30
2022-10-13T03:08:53.306Z,7.24
2022-10-13T03:09:53.333Z,7.39
2022-10-13T03:10:53.304Z,7.45
2022-10-13T03:11:53.340Z,7.41
2022-10-13T03:12:53.311Z,7.58
2022-10-13T03:13:53.280Z,7.41
2022-10-13T03:14:53.281Z,7.51
2022-10-13T03:15:53.303Z,7.47
2022-10-13T03:16:53.294Z,7.51
2022-10-13T03:17:53.323Z,7.42
2022-10-13T03:18:53.295Z,7.60
2022-10-13T03:19:53.276Z,7.54
2022-10-13T03:20:53.272Z,7.48
2022-10-13T03:21:53.257Z,7.57
2022-10-13T03:22:53.277Z,7.47
2022-10-13T03:23:53.298Z,7.37
2022-10-13T03:24:53.251Z,7.42
2022-10-13T03:25:53.234Z,7.44
2022-10-13T03:26:53.240Z,7.60
2022-10-13T03:27:53.243Z,7.58
2022-10-13T03:28:53.323Z,7.66
2022-10-13T03:29:53.216Z,7.71
2022-10-13T03:30:53.222Z,7.79
2022-10-13T03:31:53.199Z,7.88
2022-10-13T03:32:53.205Z,7.91
2022-10-13T03:33:53.230Z,7.94
2022-10-13T03:34:53.208Z,8.09
2022-10-13T03:35:53.198Z,8.03
2022-10-13T03:36:53.191Z,8.06
2022-10-13T03:37:53.183Z,8.17
2022-10-13T03:38:53.199Z,8.21
2022-10-13T03:39:53.188Z,8.07
2022-10-13T03:40:53.187Z,8.09
2022-10-13T03:41:53.165Z,8.02
2022-10-13T03:42:53.151Z,8.10
2022-10-13T03:43:53.158Z,8.12
2022-10-13T03:44:56.317Z,8.14
2022-10-13T03:45:54.150Z,8.09
2022-10-13T03:46:53.135Z,8.13
2022-10-13T03:47:53.132Z,8.13
2022-10-13T03:48:53.139Z,8.32
2022-10-13T03:49:53.131Z,8.13
2022-10-13T03:50:53.133Z,8.20
2022-10-13T03:51:53.146Z,8.29
2022-10-13T03:52:53.114Z,8.21
2022-10-13T03:53:53.119Z,8.12
2022-10-13T03:54:53.136Z,8.18
2022-10-13T03:55:53.118Z,8.17
2022-10-13T03:56:53.082Z,7.94
2022-10-13T03:57:54.097Z,7.94
2022-10-13T03:58:53.080Z,7.89
2022-10-13T03:59:53.093Z,7.81
2022-10-13T04:00:53.211Z,7.76
2022-10-13T04:01:53.115Z,7.82
2022-10-13T04:02:53.097Z,7.79
2022-10-13T04:03:53.081Z,7.74
2022-10-13T04:04:53.081Z,7.76
2022-10-13T04:05:53.035Z,7.79
2022-10-13T04:06:53.046Z,7.94
2022-10-13T04:07:53.100Z,7.99
2022-10-13T04:08:53.048Z,7.95
2022-10-13T04:09:53.028Z,7.94
2022-10-13T04:10:53.041Z,8.09
2022-10-13T04:11:53.053Z,8.12
2022-10-13T04:12:53.037Z,7.89
2022-10-13T04:13:53.009Z,7.94
2022-10-13T04:14:53.049Z,8.07
2022-10-13T04:15:53.013Z,7.92
2022-10-13T04:16:53.003Z,7.92
2022-10-13T04:17:53.026Z,7.94
2022-10-13T04:18:52.990Z,8.10
2022-10-13T04:19:53.035Z,8.02
2022-10-13T04:20:52.987Z,8.07
2022-10-13T04:21:53.003Z,8.22
2022-10-13T04:22:52.965Z,8.21
2022-10-13T04:23:52.974Z,8.22
2022-10-13T04:24:52.993Z,8.03
2022-10-13T04:25:52.947Z,7.92
2022-10-13T04:26:52.975Z,7.81
2022-10-13T04:27:52.954Z,7.91
2022-10-13T04:28:53.020Z,7.95
2022-10-13T04:29:52.963Z,8.09
2022-10-13T04:30:52.959Z,8.18
2022-10-13T04:31:52.976Z,8.07
2022-10-13T04:32:52.933Z,8.10
2022-10-13T04:33:52.934Z,8.24
2022-10-13T04:34:52.978Z,8.21
2022-10-13T04:35:52.907Z,8.28
2022-10-13T04:36:52.957Z,8.24
2022-10-13T04:37:52.900Z,8.18
2022-10-13T04:38:52.890Z,8.22
2022-10-13T04:39:52.959Z,8.20
2022-10-13T04:40:52.912Z,8.22
2022-10-13T04:41:52.900Z,8.04
2022-10-13T04:42:52.886Z,7.96
2022-10-13T04:43:52.877Z,7.99
2022-10-13T04:44:52.892Z,8.03
2022-10-13T04:45:52.883Z,8.18
2022-10-13T04:46:52.878Z,8.13
2022-10-13T04:47:52.870Z,8.22
2022-10-13T04:48:52.851Z,8.24
2022-10-13T04:49:52.856Z,8.34
2022-10-13T04:50:52.858Z,8.43
2022-10-13T04:51:52.853Z,8.55
2022-10-13T04:52:52.863Z,8.54
2022-10-13T04:53:52.862Z,8.61
2022-10-13T04:54:52.875Z,8.68
2022-10-13T04:55:52.808Z,8.71
2022-10-13T04:56:52.921Z,8.76
2022-10-13T04:57:52.835Z,8.83
2022-10-13T04:58:52.804Z,8.89
2022-10-13T04:59:52.794Z,8.86
2022-10-13T05:00:52.814Z,8.97
2022-10-13T05:01:52.810Z,9.01
2022-10-13T05:02:52.814Z,9.01
2022-10-13T05:03:52.773Z,9.06
2022-10-13T05:04:52.776Z,9.04
2022-10-13T05:05:52.766Z,9.15
2022-10-13T05:07:16.565Z,9.08
2022-10-13T05:07:54.789Z,9.06
2022-10-13T05:08:52.762Z,9.04
2022-10-13T05:09:52.884Z,9.08
2022-10-13T05:10:52.746Z,8.98
2022-10-13T05:11:52.801Z,9.08
2022-10-13T05:12:52.750Z,9.04
2022-10-13T05:13:52.771Z,9.12
2022-10-13T05:14:52.737Z,9.04
2022-10-13T05:15:52.741Z,9.08
2022-10-13T05:16:52.708Z,9.04
2022-10-13T05:17:52.713Z,9.06
2022-10-13T05:18:52.732Z,9.17
2022-10-13T05:19:52.711Z,9.20
2022-10-13T05:20:52.730Z,9.26
2022-10-13T05:21:52.900Z,9.12
2022-10-13T05:22:52.691Z,9.12
2022-10-13T05:23:52.705Z,9.13
2022-10-13T05:24:52.707Z,9.19
2022-10-13T05:25:52.675Z,9.24
2022-10-13T05:26:52.683Z,9.24
2022-10-13T05:27:52.665Z,9.27
2022-10-13T05:28:52.711Z,9.24
2022-10-13T05:29:52.680Z,9.31
2022-10-13T05:30:52.661Z,9.23
2022-10-13T05:31:52.736Z,9.38
2022-10-13T05:32:54.014Z,9.32
2022-10-13T05:33:53.645Z,9.42
2022-10-13T05:34:52.696Z,9.32
2022-10-13T05:35:52.693Z,9.24
2022-10-13T05:36:52.700Z,9.27
2022-10-13T05:37:53.650Z,9.19
2022-10-13T05:38:52.618Z,9.26
2022-10-13T05:39:52.642Z,9.22
2022-10-13T05:40:52.638Z,9.16
2022-10-13T05:41:52.721Z,9.10
2022-10-13T05:42:52.613Z,9.08
2022-10-13T05:43:52.613Z,9.01
2022-10-13T05:44:52.650Z,9.13
2022-10-13T05:45:52.592Z,9.13
2022-10-13T05:46:52.587Z,9.15
2022-10-13T05:47:52.586Z,9.17
2022-10-13T05:48:52.567Z,9.10
2022-10-13T05:49:52.665Z,9.04
2022-10-13T05:50:52.626Z,9.10
2022-10-13T05:51:52.595Z,9.10
2022-10-13T05:52:52.589Z,8.96
2022-10-13T05:53:56.908Z,9.01
2022-10-13T05:54:54.536Z,9.01
2022-10-13T05:55:52.573Z,9.01
2022-10-13T05:56:52.536Z,9.04
2022-10-13T05:57:52.531Z,9.08
2022-10-13T05:58:52.553Z,9.22
2022-10-13T05:59:52.578Z,9.23
2022-10-13T06:00:52.533Z,9.12
2022-10-13T06:01:52.578Z,9.23
2022-10-13T06:02:52.504Z,9.20
2022-10-13T06:03:52.507Z,9.22
2022-10-13T06:04:52.552Z,9.10
2022-10-13T06:05:53.004Z,9.17
2022-10-13T06:06:52.576Z,9.03
2022-10-13T06:07:52.613Z,9.08
2022-10-13T06:08:53.602Z,9.10
2022-10-13T06:09:52.482Z,9.10
2022-10-13T06:10:52.516Z,9.10
2022-10-13T06:11:52.484Z,9.24
2022-10-13T06:12:52.505Z,9.19
2022-10-13T06:13:52.462Z,9.22
2022-10-13T06:14:52.495Z,9.26
2022-10-13T06:15:53.474Z,9.24
2022-10-13T06:16:52.542Z,9.32
2022-10-13T06:17:52.622Z,9.40
2022-10-13T06:18:52.474Z,9.49
2022-10-13T06:19:52.429Z,9.30
2022-10-13T06:20:52.433Z,9.31
2022-10-13T06:21:52.497Z,9.35
2022-10-13T06:22:52.426Z,9.34
2022-10-13T06:23:52.470Z,9.38
2022-10-13T06:24:52.508Z,9.48
2022-10-13T06:25:52.507Z,9.48
2022-10-13T06:26:52.399Z,9.58
2022-10-13T06:27:52.394Z,9.62
2022-10-13T06:28:56.923Z,9.63
2022-10-13T06:29:54.431Z,9.50
2022-10-13T06:30:52.390Z,9.70
2022-10-13T06:31:52.375Z,9.70
2022-10-13T06:32:52.375Z,9.74
2022-10-13T06:33:53.030Z,9.74
2022-10-13T06:34:52.385Z,9.58
2022-10-13T06:35:52.361Z,9.52
2022-10-13T06:36:52.405Z,9.52
2022-10-13T06:37:52.392Z,9.42
2022-10-13T06:38:52.353Z,9.53
2022-10-13T06:39:52.350Z,9.70
2022-10-13T06:40:52.321Z,9.70
2022-10-13T06:41:52.349Z,9.81
2022-10-13T06:42:52.387Z,9.81
2022-10-13T06:43:52.331Z,9.85
2022-10-13T06:44:52.359Z,9.83
2022-10-13T06:45:52.334Z,9.85
2022-10-13T06:46:52.295Z,9.83
2022-10-13T06:47:52.558Z,9.85
2022-10-13T06:48:52.386Z,9.91
2022-10-13T06:49:52.358Z,9.85
2022-10-13T06:50:52.340Z,10.01
2022-10-13T06:51:52.294Z,9.93
2022-10-13T06:52:52.308Z,9.99
2022-10-13T06:53:52.326Z,9.99
2022-10-13T06:54:52.309Z,10.06
2022-10-13T06:55:52.711Z,9.99
2022-10-13T06:56:53.246Z,10.01
2022-10-13T06:57:52.336Z,9.89
2022-10-13T06:58:52.256Z,9.86
2022-10-13T06:59:52.273Z,9.91
2022-10-13T07:00:52.257Z,9.95
2022-10-13T07:01:52.232Z,9.95
2022-10-13T07:02:52.228Z,9.93
2022-10-13T07:03:52.251Z,9.92
2022-10-13T07:04:52.212Z,10.09
2022-10-13T07:05:52.230Z,10.07
2022-10-13T07:06:52.189Z,10.09
2022-10-13T07:07:52.207Z,10.02
2022-10-13T07:08:52.193Z,10.13
2022-10-13T07:09:52.209Z,10.10
2022-10-13T07:10:52.168Z,9.99
2022-10-13T07:11:52.200Z,9.96
2022-10-13T07:12:52.258Z,10.02
2022-10-13T07:13:52.186Z,10.07
2022-10-13T07:14:52.154Z,10.16
2022-10-13T07:15:52.162Z,10.14
2022-10-13T07:16:52.158Z,10.24
2022-10-13T07:17:52.143Z,10.07
2022-10-13T07:18:52.154Z,10.04
2022-10-13T07:19:57.018Z,10.02
2022-10-13T07:20:54.147Z,10.10
2022-10-13T07:21:52.112Z,10.07
2022-10-13T07:22:52.148Z,10.20
2022-10-13T07:23:52.143Z,10.17
2022-10-13T07:24:52.110Z,10.01
2022-10-13T07:25:52.111Z,10.13
2022-10-13T07:26:52.068Z,10.16
2022-10-13T07:27:52.085Z,10.25
2022-10-13T07:28:52.112Z,10.20
2022-10-13T07:29:52.114Z,10.25
2022-10-13T07:30:53.055Z,10.22
2022-10-13T07:31:52.032Z,10.47
2022-10-13T07:32:52.047Z,10.25
2022-10-13T07:33:52.048Z,10.32
2022-10-13T07:34:52.056Z,10.24
2022-10-13T07:35:52.058Z,10.14
2022-10-13T07:36:52.056Z,10.14
2022-10-13T07:37:52.007Z,10.09
2022-10-13T07:38:52.002Z,10.10
2022-10-13T07:39:51.995Z,10.13
2022-10-13T07:40:51.981Z,10.16
2022-10-13T07:41:52.007Z,10.25
2022-10-13T07:42:52.035Z,10.22
2022-10-13T07:43:51.974Z,10.26
2022-10-13T07:44:51.992Z,10.36
2022-10-13T07:45:51.965Z,10.36
2022-10-13T07:46:52.007Z,10.35
2022-10-13T07:47:51.959Z,10.44
2022-10-13T07:48:52.044Z,10.32
2022-10-13T07:49:51.928Z,10.38
2022-10-13T07:50:51.937Z,10.36
2022-10-13T07:51:52.000Z,10.39
2022-10-13T07:52:52.018Z,10.44
2022-10-13T07:53:51.926Z,10.46
2022-10-13T07:54:51.910Z,10.49
2022-10-13T07:55:52.592Z,10.42
2022-10-13T07:56:51.893Z,10.44
2022-10-13T07:57:51.904Z,10.46
2022-10-13T07:58:51.890Z,10.42
2022-10-13T07:59:51.876Z,10.51
2022-10-13T08:00:51.892Z,10.47
2022-10-13T08:01:51.962Z,10.43
2022-10-13T08:02:51.868Z,10.57
2022-10-13T08:03:51.870Z,10.52
2022-10-13T08:04:51.887Z,10.63
2022-10-13T08:05:51.843Z,10.58
2022-10-13T08:06:51.846Z,10.42
2022-10-13T08:07:54.716Z,10.39
2022-10-13T08:08:54.007Z,10.35
2022-10-13T08:09:51.858Z,10.47
2022-10-13T08:10:51.891Z,10.54
2022-10-13T08:11:51.816Z,10.54
2022-10-13T08:12:51.864Z,10.60
2022-10-13T08:13:51.807Z,10.51
2022-10-13T08:14:51.900Z,10.73
2022-10-13T08:15:51.858Z,10.70
2022-10-13T08:16:53.688Z,10.76
2022-10-13T08:17:51.807Z,10.78
2022-10-13T08:18:51.782Z,10.76
2022-10-13T08:19:51.750Z,10.75
2022-10-13T08:20:55.563Z,10.86
2022-10-13T08:22:00.435Z,10.86
2022-10-13T08:22:53.753Z,10.90
2022-10-13T08:23:51.741Z,10.99
2022-10-13T08:24:51.738Z,11.03
2022-10-13T08:25:51.751Z,11.01
2022-10-13T08:26:51.754Z,10.99
2022-10-13T08:27:54.730Z,10.99
2022-10-13T08:29:23.087Z,11.06
2022-10-13T08:29:53.741Z,11.09
2022-10-13T08:30:51.853Z,11.13
2022-10-13T08:31:51.960Z,11.26
2022-10-13T08:32:51.704Z,11.33
2022-10-13T08:33:51.695Z,11.38
2022-10-13T08:34:51.668Z,11.41
2022-10-13T08:35:51.691Z,11.48
2022-10-13T08:36:51.702Z,11.46
2022-10-13T08:37:51.686Z,11.35
2022-10-13T08:38:51.661Z,11.41
2022-10-13T08:39:51.662Z,11.49
2022-10-13T08:40:51.637Z,11.48
2022-10-13T08:41:51.662Z,11.48
2022-10-13T08:42:53.631Z,11.51
2022-10-13T08:44:33.025Z,11.44
2022-10-13T08:45:53.684Z,11.53
2022-10-13T08:46:51.814Z,11.70
2022-10-13T08:47:51.595Z,11.59
2022-10-13T08:48:51.605Z,11.69
2022-10-13T08:49:54.337Z,11.59
2022-10-13T08:50:52.600Z,11.59
2022-10-13T08:51:51.614Z,11.63
2022-10-13T08:52:51.631Z,11.59
2022-10-13T08:53:51.575Z,11.64
2022-10-13T08:54:51.560Z,11.63
2022-10-13T08:55:51.597Z,11.62
2022-10-13T08:56:51.656Z,11.66
2022-10-13T08:57:51.539Z,11.66
2022-10-13T08:58:51.551Z,11.64
2022-10-13T08:59:51.507Z,11.79
2022-10-13T09:00:51.514Z,11.75
2022-10-13T09:01:51.586Z,11.84
2022-10-13T09:02:51.484Z,11.90
2022-10-13T09:03:52.617Z,11.94
2022-10-13T09:04:52.029Z,11.87
2022-10-13T09:05:51.479Z,11.79
2022-10-13T09:06:51.485Z,11.77
2022-10-13T09:07:51.485Z,11.72
2022-10-13T09:08:51.510Z,11.94
2022-10-13T09:09:51.488Z,11.88
2022-10-13T09:10:51.491Z,11.87
2022-10-13T09:11:52.574Z,11.90
2022-10-13T09:12:51.470Z,12.01
2022-10-13T09:13:51.436Z,12.01
2022-10-13T09:14:51.467Z,12.08
2022-10-13T09:15:51.451Z,12.13
2022-10-13T09:16:51.437Z,12.16
2022-10-13T09:17:51.408Z,12.29
2022-10-13T09:18:51.417Z,12.19
2022-10-13T09:19:51.446Z,12.23
2022-10-13T09:20:51.420Z,12.33
2022-10-13T09:21:51.403Z,12.38
2022-10-13T09:22:51.384Z,12.49
2022-10-13T09:23:51.366Z,12.38
2022-10-13T09:24:51.366Z,12.44
2022-10-13T09:25:51.419Z,12.44
2022-10-13T09:26:51.379Z,12.58
2022-10-13T09:27:51.338Z,12.52
2022-10-13T09:28:51.389Z,12.54
2022-10-13T09:29:51.345Z,12.63
2022-10-13T09:30:51.378Z,12.59
2022-10-13T09:31:51.359Z,12.58
2022-10-13T09:32:51.314Z,12.58
2022-10-13T09:33:51.306Z,12.59
2022-10-13T09:34:51.310Z,12.66
2022-10-13T09:35:51.285Z,12.63
2022-10-13T09:36:51.370Z,12.74
2022-10-13T09:37:51.306Z,12.61
2022-10-13T09:38:51.297Z,12.67
2022-10-13T09:39:51.357Z,12.76
2022-10-13T09:40:51.264Z,12.73
2022-10-13T09:41:51.284Z,12.74
2022-10-13T09:42:51.249Z,12.76
2022-10-13T09:43:51.294Z,12.69
2022-10-13T09:44:51.346Z,12.73
2022-10-13T09:45:51.229Z,12.69
2022-10-13T09:46:51.256Z,12.73
2022-10-13T09:47:51.218Z,12.73
2022-10-13T09:48:51.221Z,12.73
2022-10-13T09:49:51.229Z,12.71
2022-10-13T09:50:51.242Z,12.71
2022-10-13T09:51:51.191Z,12.84
2022-10-13T09:52:51.215Z,12.99
2022-10-13T09:53:51.176Z,12.99
2022-10-13T09:54:51.178Z,13.09
2022-10-13T09:55:51.198Z,13.01
2022-10-13T09:56:51.175Z,13.07
2022-10-13T09:57:51.129Z,13.06
2022-10-13T09:58:51.146Z,13.12
2022-10-13T09:59:51.243Z,13.21
2022-10-13T10:00:51.153Z,13.31
2022-10-13T10:01:51.136Z,13.50
2022-10-13T10:02:51.146Z,13.79
2022-10-13T10:03:51.174Z,13.93
2022-10-13T10:04:51.114Z,14.01
2022-10-13T10:05:51.118Z,14.16
2022-10-13T10:06:51.084Z,13.94
2022-10-13T10:07:51.115Z,13.91
2022-10-13T10:09:02.648Z,13.99
2022-10-13T10:09:53.046Z,14.01
2022-10-13T10:10:51.077Z,13.94
2022-10-13T10:11:51.132Z,13.96
2022-10-13T10:12:51.016Z,14.13
2022-10-13T10:13:51.047Z,14.16
2022-10-13T10:14:51.029Z,14.09
2022-10-13T10:15:51.038Z,14.06
2022-10-13T10:16:51.058Z,14.17
2022-10-13T10:17:50.995Z,14.21
2022-10-13T10:18:55.024Z,14.16
2022-10-13T10:19:53.489Z,14.21
2022-10-13T10:20:51.014Z,14.16
2022-10-13T10:21:50.968Z,14.11
2022-10-13T10:22:50.977Z,14.06
2022-10-13T10:23:50.985Z,14.05
2022-10-13T10:24:50.961Z,13.99
2022-10-13T10:25:50.933Z,13.94
2022-10-13T10:26:50.960Z,13.84
2022-10-13T10:27:50.924Z,13.75
2022-10-13T10:28:51.070Z,13.79
2022-10-13T10:29:50.892Z,13.69
2022-10-13T10:30:50.926Z,13.50
2022-10-13T10:31:50.862Z,13.35
2022-10-13T10:32:51.885Z,13.28
2022-10-13T10:33:50.897Z,13.35
2022-10-13T10:34:50.849Z,13.27
2022-10-13T10:35:50.976Z,13.31
2022-10-13T10:36:50.870Z,13.28
2022-10-13T10:37:50.845Z,13.32
2022-10-13T10:38:50.897Z,13.31
2022-10-13T10:39:50.835Z,13.29
2022-10-13T10:40:50.836Z,13.21
2022-10-13T10:41:50.812Z,13.07
2022-10-13T10:42:52.332Z,13.09
2022-10-13T10:43:51.802Z,13.10
2022-10-13T10:44:50.787Z,13.07
2022-10-13T10:45:50.804Z,13.13
2022-10-13T10:46:50.767Z,13.04
2022-10-13T10:47:50.757Z,13.10
2022-10-13T10:48:50.791Z,13.04
2022-10-13T10:49:50.766Z,13.07
2022-10-13T10:50:50.877Z,12.98
2022-10-13T10:51:50.743Z,12.99
2022-10-13T10:52:50.756Z,13.04
2022-10-13T10:53:51.017Z,13.28
2022-10-13T10:54:50.716Z,13.43
2022-10-13T10:55:50.724Z,13.55
2022-10-13T10:56:50.694Z,13.72
2022-10-13T10:57:50.677Z,13.83
2022-10-13T10:58:50.665Z,13.96
2022-10-13T10:59:50.663Z,14.12
2022-10-13T11:00:50.683Z,14.21
2022-10-13T11:01:50.713Z,14.29
2022-10-13T11:02:50.638Z,14.44
2022-10-13T11:03:50.655Z,14.46
2022-10-13T11:04:50.639Z,14.60
2022-10-13T11:05:50.624Z,14.57
2022-10-13T11:06:50.650Z,14.69
2022-10-13T11:07:50.656Z,14.75
2022-10-13T11:08:50.587Z,14.90
2022-10-13T11:09:50.676Z,14.87
2022-10-13T11:10:50.606Z,14.85
2022-10-13T11:11:50.571Z,14.86
2022-10-13T11:12:50.609Z,14.93
2022-10-13T11:13:50.697Z,14.97
2022-10-13T11:14:50.576Z,14.86
2022-10-13T11:15:50.570Z,14.97
2022-10-13T11:16:50.577Z,15.07
2022-10-13T11:17:50.545Z,15.12
2022-10-13T11:18:50.526Z,15.05
2022-10-13T11:19:50.544Z,15.16
2022-10-13T11:20:52.796Z,15.35
2022-10-13T11:21:50.520Z,15.23
2022-10-13T11:22:51.100Z,15.12
2022-10-13T11:23:50.478Z,15.01
2022-10-13T11:24:50.684Z,15.11
2022-10-13T11:25:50.469Z,14.86
2022-10-13T11:26:50.474Z,14.78
2022-10-13T11:27:50.455Z,14.61
2022-10-13T11:28:50.538Z,14.48
2022-10-13T11:29:50.431Z,14.56
2022-10-13T11:30:50.693Z,14.52
2022-10-13T11:31:50.472Z,14.52
2022-10-13T11:32:50.436Z,14.49
2022-10-13T11:33:50.404Z,14.46
2022-10-13T11:34:50.384Z,14.59
2022-10-13T11:35:50.398Z,14.49
2022-10-13T11:36:51.135Z,14.54
2022-10-13T11:38:05.621Z,14.63
2022-10-13T11:38:52.358Z,14.57
2022-10-13T11:39:50.367Z,14.56
2022-10-13T11:40:50.364Z,14.60
2022-10-13T11:41:50.338Z,14.71
2022-10-13T11:42:52.294Z,14.74
2022-10-13T11:43:51.333Z,14.97
2022-10-13T11:44:50.324Z,15.05
2022-10-13T11:45:50.312Z,15.18
2022-10-13T11:46:50.305Z,15.05
2022-10-13T11:47:50.335Z,15.09
2022-10-13T11:48:50.346Z,15.05
2022-10-13T11:49:50.283Z,15.03
2022-10-13T11:50:50.307Z,15.31
2022-10-13T11:51:50.256Z,15.64
2022-10-13T11:52:50.356Z,15.76
2022-10-13T11:53:50.302Z,15.95
2022-10-13T11:54:50.243Z,15.86
2022-10-13T11:55:50.292Z,16.10
2022-10-13T11:56:50.234Z,16.11
2022-10-13T11:57:50.224Z,15.98
2022-10-13T11:58:50.196Z,15.89
2022-10-13T11:59:50.198Z,15.86
2022-10-13T12:00:50.242Z,15.85
2022-10-13T12:01:50.203Z,15.80
2022-10-13T12:02:50.258Z,15.73
2022-10-13T12:03:50.182Z,15.70
2022-10-13T12:04:50.183Z,15.64
2022-10-13T12:05:50.189Z,15.43
2022-10-13T12:06:50.191Z,15.35
2022-10-13T12:07:50.247Z,15.30
2022-10-13T12:08:50.231Z,15.22
2022-10-13T12:09:50.166Z,15.15
2022-10-13T12:10:50.132Z,15.09
2022-10-13T12:11:50.218Z,15.00
2022-10-13T12:12:50.175Z,15.04
2022-10-13T12:13:50.117Z,14.91
2022-10-13T12:14:50.108Z,14.90
2022-10-13T12:15:50.093Z,14.87
2022-10-13T12:16:50.189Z,14.85
2022-10-13T12:17:50.116Z,14.80
2022-10-13T12:18:50.079Z,14.75
2022-10-13T12:19:50.074Z,14.72
2022-10-13T12:20:50.067Z,14.71
2022-10-13T12:21:50.123Z,14.71
2022-10-13T12:22:50.205Z,14.67
2022-10-13T12:23:50.083Z,14.57
2022-10-13T12:24:50.032Z,14.71
2022-10-13T12:25:50.064Z,14.59
2022-10-13T12:26:50.054Z,14.59
2022-10-13T12:27:50.032Z,14.60
2022-10-13T12:28:50.223Z,14.63
2022-10-13T12:29:50.014Z,14.60
2022-10-13T12:30:49.995Z,14.67
2022-10-13T12:31:49.988Z,14.64
2022-10-13T12:32:50.001Z,14.59
2022-10-13T12:33:49.994Z,14.63
2022-10-13T12:34:49.987Z,14.64
2022-10-13T12:35:49.985Z,14.48
2022-10-13T12:36:50.005Z,14.48
2022-10-13T12:37:50.019Z,14.41
2022-10-13T12:38:49.983Z,14.42
2022-10-13T12:39:49.970Z,14.38
2022-10-13T12:40:49.934Z,14.29
2022-10-13T12:41:49.903Z,14.30
2022-10-13T12:42:49.909Z,14.34
2022-10-13T12:43:49.902Z,14.36
2022-10-13T12:44:49.910Z,14.38
2022-10-13T12:45:49.928Z,14.42
2022-10-13T12:46:49.891Z,14.46
2022-10-13T12:47:49.871Z,14.45
2022-10-13T12:48:49.920Z,14.46
2022-10-13T12:49:49.925Z,14.59
2022-10-13T12:50:49.881Z,14.57
2022-10-13T12:51:49.863Z,14.67
2022-10-13T12:52:49.843Z,14.71
2022-10-13T12:53:49.863Z,14.79
2022-10-13T12:54:49.866Z,14.82
2022-10-13T12:55:49.854Z,14.83
2022-10-13T12:56:52.426Z,14.87
2022-10-13T12:57:51.828Z,14.87
2022-10-13T12:58:49.802Z,14.91
2022-10-13T12:59:49.786Z,14.82
2022-10-13T13:00:49.848Z,14.90
2022-10-13T13:01:49.785Z,14.82
2022-10-13T13:02:49.766Z,14.83
2022-10-13T13:03:49.819Z,14.79
2022-10-13T13:04:49.749Z,14.74
2022-10-13T13:05:52.959Z,14.66
2022-10-13T13:06:51.767Z,14.82
2022-10-13T13:07:49.730Z,14.69